sensor_id;sensor_type;location;lat;lon;timestamp;pressure;altitude;pressure_sealevel;temperature;humidity
59588;BME280;45412;54.472;18.464;2023-12-20T00:00:23;98705.06;;;5.82;100.00
59588;BME280;45412;54.472;18.464;2023-12-20T00:03:31;98701.42;;;5.84;100.00
59588;BME280;45412;54.472;18.464;2023-12-20T00:06:30;98701.27;;;5.86;100.00
59588;BME280;45412;54.472;18.464;2023-12-20T00:09:19;98699.86;;;5.84;100.00
59588;BME280;45412;54.472;18.464;2023-12-20T00:12:07;98707.61;;;5.86;100.00
59588;BME280;45412;54.472;18.464;2023-12-20T00:14:54;98715.30;;;5.84;100.00
59588;BME280;45412;54.472;18.464;2023-12-20T00:17:42;98712.95;;;5.80;100.00
59588;BME280;45412;54.472;18.464;2023-12-20T00:20:31;98721.98;;;5.77;100.00
59588;BME280;45412;54.472;18.464;2023-12-20T00:23:19;98728.50;;;5.69;100.00
59588;BME280;45412;54.472;18.464;2023-12-20T00:26:07;98739.08;;;5.59;100.00
59588;BME280;45412;54.472;18.464;2023-12-20T00:28:55;98745.30;;;5.49;100.00
59588;BME280;45412;54.472;18.464;2023-12-20T00:31:43;98740.09;;;5.44;100.00
59588;BME280;45412;54.472;18.464;2023-12-20T00:34:31;98738.15;;;5.39;100.00
59588;BME280;45412;54.472;18.464;2023-12-20T00:37:19;98737.85;;;5.36;100.00
59588;BME280;45412;54.472;18.464;2023-12-20T00:40:07;98734.70;;;5.32;100.00
59588;BME280;45412;54.472;18.464;2023-12-20T00:42:56;98725.64;;;5.26;100.00
59588;BME280;45412;54.472;18.464;2023-12-20T00:45:44;98723.62;;;5.22;100.00
59588;BME280;45412;54.472;18.464;2023-12-20T00:48:31;98729.75;;;5.18;100.00
59588;BME280;45412;54.472;18.464;2023-12-20T00:51:19;98732.05;;;5.20;100.00
59588;BME280;45412;54.472;18.464;2023-12-20T00:54:07;98739.71;;;5.21;100.00
59588;BME280;45412;54.472;18.464;2023-12-20T00:56:55;98742.34;;;5.19;100.00
59588;BME280;45412;54.472;18.464;2023-12-20T00:59:43;98726.98;;;5.15;100.00
59588;BME280;45412;54.472;18.464;2023-12-20T01:02:30;98722.48;;;5.07;100.00
59588;BME280;45412;54.472;18.464;2023-12-20T01:05:18;98731.51;;;5.02;100.00
59588;BME280;45412;54.472;18.464;2023-12-20T01:08:07;98738.98;;;4.91;100.00
59588;BME280;45412;54.472;18.464;2023-12-20T01:10:54;98731.95;;;4.82;100.00
59588;BME280;45412;54.472;18.464;2023-12-20T01:13:43;98726.35;;;4.72;100.00
59588;BME280;45412;54.472;18.464;2023-12-20T01:16:32;98736.68;;;4.61;100.00
59588;BME280;45412;54.472;18.464;2023-12-20T01:19:20;98733.62;;;4.52;100.00
59588;BME280;45412;54.472;18.464;2023-12-20T01:22:08;98729.20;;;4.45;100.00
59588;BME280;45412;54.472;18.464;2023-12-20T01:24:55;98723.55;;;4.36;100.00
59588;BME280;45412;54.472;18.464;2023-12-20T01:27:43;98721.84;;;4.28;100.00
59588;BME280;45412;54.472;18.464;2023-12-20T01:30:32;98720.17;;;4.22;100.00
59588;BME280;45412;54.472;18.464;2023-12-20T01:33:20;98719.80;;;4.15;100.00
59588;BME280;45412;54.472;18.464;2023-12-20T01:36:08;98727.12;;;4.09;100.00
59588;BME280;45412;54.472;18.464;2023-12-20T01:38:56;98725.94;;;4.00;100.00
59588;BME280;45412;54.472;18.464;2023-12-20T01:41:44;98723.71;;;3.92;100.00
59588;BME280;45412;54.472;18.464;2023-12-20T01:44:33;98726.70;;;3.85;100.00
59588;BME280;45412;54.472;18.464;2023-12-20T01:47:21;98727.16;;;3.78;100.00
59588;BME280;45412;54.472;18.464;2023-12-20T01:50:09;98717.17;;;3.73;100.00
59588;BME280;45412;54.472;18.464;2023-12-20T01:53:00;98715.08;;;3.68;100.00
59588;BME280;45412;54.472;18.464;2023-12-20T01:55:50;98716.88;;;3.65;100.00
59588;BME280;45412;54.472;18.464;2023-12-20T01:58:43;98713.73;;;3.62;100.00
59588;BME280;45412;54.472;18.464;2023-12-20T02:01:31;98719.17;;;3.60;100.00
59588;BME280;45412;54.472;18.464;2023-12-20T02:04:19;98718.46;;;3.57;100.00
59588;BME280;45412;54.472;18.464;2023-12-20T02:07:08;98711.97;;;3.57;100.00
59588;BME280;45412;54.472;18.464;2023-12-20T02:09:56;98713.02;;;3.57;100.00
59588;BME280;45412;54.472;18.464;2023-12-20T02:12:44;98714.95;;;3.57;100.00
59588;BME280;45412;54.472;18.464;2023-12-20T02:15:32;98705.75;;;3.56;100.00
59588;BME280;45412;54.472;18.464;2023-12-20T02:18:20;98703.27;;;3.53;100.00
59588;BME280;45412;54.472;18.464;2023-12-20T02:21:09;98701.30;;;3.52;100.00
59588;BME280;45412;54.472;18.464;2023-12-20T02:23:57;98707.44;;;3.49;100.00
59588;BME280;45412;54.472;18.464;2023-12-20T02:26:44;98703.97;;;3.44;100.00
59588;BME280;45412;54.472;18.464;2023-12-20T02:29:34;98718.09;;;3.48;100.00
59588;BME280;45412;54.472;18.464;2023-12-20T02:32:24;98719.05;;;3.49;100.00
59588;BME280;45412;54.472;18.464;2023-12-20T02:35:15;98714.08;;;3.47;100.00
59588;BME280;45412;54.472;18.464;2023-12-20T02:38:02;98716.18;;;3.55;100.00
59588;BME280;45412;54.472;18.464;2023-12-20T02:40:50;98706.55;;;3.59;100.00
59588;BME280;45412;54.472;18.464;2023-12-20T02:43:38;98701.09;;;3.65;100.00
59588;BME280;45412;54.472;18.464;2023-12-20T02:46:26;98696.66;;;3.68;100.00
59588;BME280;45412;54.472;18.464;2023-12-20T02:49:14;98690.83;;;3.71;100.00
59588;BME280;45412;54.472;18.464;2023-12-20T02:52:02;98689.73;;;3.74;100.00
59588;BME280;45412;54.472;18.464;2023-12-20T02:54:50;98687.23;;;3.75;100.00
59588;BME280;45412;54.472;18.464;2023-12-20T02:57:39;98685.38;;;3.73;100.00
59588;BME280;45412;54.472;18.464;2023-12-20T03:00:30;98686.05;;;3.72;100.00
59588;BME280;45412;54.472;18.464;2023-12-20T03:03:18;98680.45;;;3.69;100.00
59588;BME280;45412;54.472;18.464;2023-12-20T03:06:05;98672.77;;;3.69;100.00
59588;BME280;45412;54.472;18.464;2023-12-20T03:08:53;98676.70;;;3.70;100.00
59588;BME280;45412;54.472;18.464;2023-12-20T03:11:41;98675.27;;;3.70;100.00
59588;BME280;45412;54.472;18.464;2023-12-20T03:14:29;98668.25;;;3.73;100.00
59588;BME280;45412;54.472;18.464;2023-12-20T03:17:17;98662.45;;;3.75;100.00
59588;BME280;45412;54.472;18.464;2023-12-20T03:20:07;98665.56;;;3.76;100.00
59588;BME280;45412;54.472;18.464;2023-12-20T03:22:55;98669.99;;;3.75;100.00
59588;BME280;45412;54.472;18.464;2023-12-20T03:25:43;98665.15;;;3.72;100.00
59588;BME280;45412;54.472;18.464;2023-12-20T03:28:30;98662.92;;;3.69;100.00
59588;BME280;45412;54.472;18.464;2023-12-20T03:31:19;98661.89;;;3.66;100.00
59588;BME280;45412;54.472;18.464;2023-12-20T03:34:07;98668.60;;;3.65;100.00
59588;BME280;45412;54.472;18.464;2023-12-20T03:36:55;98661.37;;;3.66;100.00
59588;BME280;45412;54.472;18.464;2023-12-20T03:39:43;98667.37;;;3.66;100.00
59588;BME280;45412;54.472;18.464;2023-12-20T03:42:31;98670.67;;;3.61;100.00
59588;BME280;45412;54.472;18.464;2023-12-20T03:45:18;98672.08;;;3.58;100.00
59588;BME280;45412;54.472;18.464;2023-12-20T03:48:07;98662.85;;;3.52;100.00
59588;BME280;45412;54.472;18.464;2023-12-20T03:50:55;98665.27;;;3.46;100.00
59588;BME280;45412;54.472;18.464;2023-12-20T03:53:42;98667.42;;;3.39;100.00
59588;BME280;45412;54.472;18.464;2023-12-20T03:56:30;98665.31;;;3.35;100.00
59588;BME280;45412;54.472;18.464;2023-12-20T03:59:18;98659.82;;;3.30;100.00
59588;BME280;45412;54.472;18.464;2023-12-20T04:02:06;98665.34;;;3.27;100.00
59588;BME280;45412;54.472;18.464;2023-12-20T04:04:54;98660.51;;;3.23;100.00
59588;BME280;45412;54.472;18.464;2023-12-20T04:07:42;98658.14;;;3.22;100.00
59588;BME280;45412;54.472;18.464;2023-12-20T04:10:29;98658.50;;;3.19;100.00
59588;BME280;45412;54.472;18.464;2023-12-20T04:13:17;98654.72;;;3.18;100.00
59588;BME280;45412;54.472;18.464;2023-12-20T04:16:06;98659.08;;;3.16;100.00
59588;BME280;45412;54.472;18.464;2023-12-20T04:18:54;98664.23;;;3.15;100.00
59588;BME280;45412;54.472;18.464;2023-12-20T04:21:41;98666.80;;;3.13;100.00
59588;BME280;45412;54.472;18.464;2023-12-20T04:24:29;98668.63;;;3.10;100.00
59588;BME280;45412;54.472;18.464;2023-12-20T04:27:16;98670.70;;;3.05;100.00
59588;BME280;45412;54.472;18.464;2023-12-20T04:30:05;98671.77;;;3.02;100.00
59588;BME280;45412;54.472;18.464;2023-12-20T04:32:53;98676.13;;;3.00;100.00
59588;BME280;45412;54.472;18.464;2023-12-20T04:35:41;98679.92;;;2.98;100.00
59588;BME280;45412;54.472;18.464;2023-12-20T04:38:30;98680.39;;;2.96;100.00
59588;BME280;45412;54.472;18.464;2023-12-20T04:41:18;98679.66;;;2.94;100.00
59588;BME280;45412;54.472;18.464;2023-12-20T04:44:07;98684.64;;;2.93;100.00
59588;BME280;45412;54.472;18.464;2023-12-20T04:46:54;98676.95;;;2.93;100.00
59588;BME280;45412;54.472;18.464;2023-12-20T04:49:43;98675.50;;;2.91;100.00
59588;BME280;45412;54.472;18.464;2023-12-20T04:52:31;98675.77;;;2.90;100.00
59588;BME280;45412;54.472;18.464;2023-12-20T04:55:19;98680.52;;;2.87;100.00
59588;BME280;45412;54.472;18.464;2023-12-20T04:58:08;98673.52;;;2.84;100.00
59588;BME280;45412;54.472;18.464;2023-12-20T05:00:56;98666.81;;;2.77;100.00
59588;BME280;45412;54.472;18.464;2023-12-20T05:03:44;98673.73;;;2.78;100.00
59588;BME280;45412;54.472;18.464;2023-12-20T05:06:31;98673.85;;;2.77;100.00
59588;BME280;45412;54.472;18.464;2023-12-20T05:09:20;98670.26;;;2.76;100.00
59588;BME280;45412;54.472;18.464;2023-12-20T05:12:07;98670.84;;;2.74;100.00
59588;BME280;45412;54.472;18.464;2023-12-20T05:14:56;98672.58;;;2.72;100.00
59588;BME280;45412;54.472;18.464;2023-12-20T05:17:44;98676.61;;;2.72;100.00
59588;BME280;45412;54.472;18.464;2023-12-20T05:20:32;98677.24;;;2.70;100.00
59588;BME280;45412;54.472;18.464;2023-12-20T05:23:20;98683.48;;;2.71;100.00
59588;BME280;45412;54.472;18.464;2023-12-20T05:26:08;98682.79;;;2.71;100.00
59588;BME280;45412;54.472;18.464;2023-12-20T05:28:55;98683.63;;;2.72;100.00
59588;BME280;45412;54.472;18.464;2023-12-20T05:31:43;98676.64;;;2.71;100.00
59588;BME280;45412;54.472;18.464;2023-12-20T05:34:31;98670.50;;;2.71;100.00
59588;BME280;45412;54.472;18.464;2023-12-20T05:37:19;98661.33;;;2.70;100.00
59588;BME280;45412;54.472;18.464;2023-12-20T05:40:08;98658.62;;;2.68;100.00
59588;BME280;45412;54.472;18.464;2023-12-20T05:42:59;98659.27;;;2.67;100.00
59588;BME280;45412;54.472;18.464;2023-12-20T05:45:47;98658.70;;;2.68;100.00
59588;BME280;45412;54.472;18.464;2023-12-20T05:48:35;98652.84;;;2.68;100.00
59588;BME280;45412;54.472;18.464;2023-12-20T05:51:23;98650.50;;;2.67;100.00
59588;BME280;45412;54.472;18.464;2023-12-20T05:54:11;98655.86;;;2.65;100.00
59588;BME280;45412;54.472;18.464;2023-12-20T05:56:59;98657.41;;;2.63;100.00
59588;BME280;45412;54.472;18.464;2023-12-20T05:59:48;98654.66;;;2.60;100.00
59588;BME280;45412;54.472;18.464;2023-12-20T06:02:36;98658.48;;;2.58;100.00
59588;BME280;45412;54.472;18.464;2023-12-20T06:05:26;98659.67;;;2.55;100.00
59588;BME280;45412;54.472;18.464;2023-12-20T06:08:14;98661.25;;;2.55;100.00
59588;BME280;45412;54.472;18.464;2023-12-20T06:11:02;98653.77;;;2.55;100.00
59588;BME280;45412;54.472;18.464;2023-12-20T06:13:50;98652.73;;;2.55;100.00
59588;BME280;45412;54.472;18.464;2023-12-20T06:16:40;98646.16;;;2.53;100.00
59588;BME280;45412;54.472;18.464;2023-12-20T06:19:28;98643.95;;;2.52;100.00
59588;BME280;45412;54.472;18.464;2023-12-20T06:22:16;98640.89;;;2.51;100.00
59588;BME280;45412;54.472;18.464;2023-12-20T06:25:05;98634.73;;;2.51;100.00
59588;BME280;45412;54.472;18.464;2023-12-20T06:27:53;98635.20;;;2.52;100.00
59588;BME280;45412;54.472;18.464;2023-12-20T06:30:41;98631.04;;;2.52;100.00
59588;BME280;45412;54.472;18.464;2023-12-20T06:33:29;98620.67;;;2.52;100.00
59588;BME280;45412;54.472;18.464;2023-12-20T06:36:18;98618.94;;;2.52;100.00
59588;BME280;45412;54.472;18.464;2023-12-20T06:39:06;98613.27;;;2.53;100.00
59588;BME280;45412;54.472;18.464;2023-12-20T06:41:54;98614.92;;;2.52;100.00
59588;BME280;45412;54.472;18.464;2023-12-20T06:44:42;98610.34;;;2.50;100.00
59588;BME280;45412;54.472;18.464;2023-12-20T06:47:29;98610.36;;;2.44;100.00
59588;BME280;45412;54.472;18.464;2023-12-20T06:50:17;98612.68;;;2.38;100.00
59588;BME280;45412;54.472;18.464;2023-12-20T06:53:05;98617.23;;;2.33;100.00
59588;BME280;45412;54.472;18.464;2023-12-20T06:55:55;98615.34;;;2.27;100.00
59588;BME280;45412;54.472;18.464;2023-12-20T06:58:44;98617.53;;;2.24;100.00
59588;BME280;45412;54.472;18.464;2023-12-20T07:01:32;98620.30;;;2.21;100.00
59588;BME280;45412;54.472;18.464;2023-12-20T07:04:20;98618.76;;;2.20;100.00
59588;BME280;45412;54.472;18.464;2023-12-20T07:07:10;98618.23;;;2.24;100.00
59588;BME280;45412;54.472;18.464;2023-12-20T07:09:58;98617.89;;;2.26;100.00
59588;BME280;45412;54.472;18.464;2023-12-20T07:12:46;98622.39;;;2.27;100.00
59588;BME280;45412;54.472;18.464;2023-12-20T07:15:34;98618.81;;;2.28;100.00
59588;BME280;45412;54.472;18.464;2023-12-20T07:18:23;98617.80;;;2.27;100.00
59588;BME280;45412;54.472;18.464;2023-12-20T07:21:11;98615.98;;;2.26;100.00
59588;BME280;45412;54.472;18.464;2023-12-20T07:23:59;98612.35;;;2.22;100.00
59588;BME280;45412;54.472;18.464;2023-12-20T07:26:47;98605.05;;;2.19;100.00
59588;BME280;45412;54.472;18.464;2023-12-20T07:29:35;98602.11;;;2.16;100.00
59588;BME280;45412;54.472;18.464;2023-12-20T07:32:23;98602.80;;;2.13;100.00
59588;BME280;45412;54.472;18.464;2023-12-20T07:35:11;98600.45;;;2.09;100.00
59588;BME280;45412;54.472;18.464;2023-12-20T07:37:59;98595.45;;;2.05;100.00
59588;BME280;45412;54.472;18.464;2023-12-20T07:40:47;98591.96;;;2.02;100.00
59588;BME280;45412;54.472;18.464;2023-12-20T07:43:35;98588.61;;;2.00;100.00
59588;BME280;45412;54.472;18.464;2023-12-20T07:46:23;98587.66;;;1.98;100.00
59588;BME280;45412;54.472;18.464;2023-12-20T07:49:14;98585.82;;;1.97;100.00
59588;BME280;45412;54.472;18.464;2023-12-20T07:52:02;98588.61;;;1.97;100.00
59588;BME280;45412;54.472;18.464;2023-12-20T07:54:50;98591.78;;;1.97;100.00
59588;BME280;45412;54.472;18.464;2023-12-20T07:57:37;98588.44;;;1.97;100.00
59588;BME280;45412;54.472;18.464;2023-12-20T08:00:26;98586.83;;;1.98;100.00
59588;BME280;45412;54.472;18.464;2023-12-20T08:03:14;98581.65;;;1.99;100.00
59588;BME280;45412;54.472;18.464;2023-12-20T08:06:03;98576.26;;;2.01;100.00
59588;BME280;45412;54.472;18.464;2023-12-20T08:08:51;98573.16;;;2.06;100.00
59588;BME280;45412;54.472;18.464;2023-12-20T08:11:49;98568.08;;;2.12;100.00
59588;BME280;45412;54.472;18.464;2023-12-20T08:14:39;98560.30;;;2.16;100.00
59588;BME280;45412;54.472;18.464;2023-12-20T08:17:27;98552.79;;;2.20;100.00
59588;BME280;45412;54.472;18.464;2023-12-20T08:20:18;98551.77;;;2.28;100.00
59588;BME280;45412;54.472;18.464;2023-12-20T08:23:16;98552.15;;;2.40;100.00
59588;BME280;45412;54.472;18.464;2023-12-20T08:26:06;98550.86;;;2.77;100.00
59588;BME280;45412;54.472;18.464;2023-12-20T08:28:53;98546.08;;;3.64;100.00
59588;BME280;45412;54.472;18.464;2023-12-20T08:31:44;98544.06;;;5.00;99.60
59588;BME280;45412;54.472;18.464;2023-12-20T08:34:32;98536.17;;;6.45;95.31
59588;BME280;45412;54.472;18.464;2023-12-20T08:37:20;98537.92;;;7.57;86.40
59588;BME280;45412;54.472;18.464;2023-12-20T08:40:08;98526.36;;;8.57;80.35
59588;BME280;45412;54.472;18.464;2023-12-20T08:42:56;98524.61;;;9.50;76.50
59588;BME280;45412;54.472;18.464;2023-12-20T08:45:44;98516.55;;;10.30;70.71
59588;BME280;45412;54.472;18.464;2023-12-20T08:48:32;98511.23;;;10.97;68.50
59588;BME280;45412;54.472;18.464;2023-12-20T08:51:20;98506.98;;;11.57;66.52
59588;BME280;45412;54.472;18.464;2023-12-20T08:54:10;98500.13;;;12.18;62.74
59588;BME280;45412;54.472;18.464;2023-12-20T08:57:00;98496.02;;;11.77;62.34
59588;BME280;45412;54.472;18.464;2023-12-20T08:59:48;98495.85;;;10.56;64.06
59588;BME280;45412;54.472;18.464;2023-12-20T09:02:36;98490.31;;;9.64;66.58
59588;BME280;45412;54.472;18.464;2023-12-20T09:05:26;98491.83;;;8.60;69.85
59588;BME280;45412;54.472;18.464;2023-12-20T09:08:13;98489.20;;;7.83;73.52
59588;BME280;45412;54.472;18.464;2023-12-20T09:11:01;98493.58;;;7.10;76.40
59588;BME280;45412;54.472;18.464;2023-12-20T09:13:50;98492.92;;;6.50;79.65
59588;BME280;45412;54.472;18.464;2023-12-20T09:16:38;98487.51;;;6.10;82.50
59588;BME280;45412;54.472;18.464;2023-12-20T09:19:26;98481.11;;;5.79;84.57
59588;BME280;45412;54.472;18.464;2023-12-20T09:22:14;98479.30;;;5.58;86.09
59588;BME280;45412;54.472;18.464;2023-12-20T09:25:02;98477.95;;;5.38;87.37
59588;BME280;45412;54.472;18.464;2023-12-20T09:27:52;98466.19;;;5.57;87.44
59588;BME280;45412;54.472;18.464;2023-12-20T09:30:40;98466.75;;;5.82;86.95
59588;BME280;45412;54.472;18.464;2023-12-20T09:33:28;98462.37;;;6.32;85.44
59588;BME280;45412;54.472;18.464;2023-12-20T09:36:33;98455.48;;;6.45;84.01
59588;BME280;45412;54.472;18.464;2023-12-20T09:39:23;98453.30;;;6.06;84.62
59588;BME280;45412;54.472;18.464;2023-12-20T09:42:14;98439.66;;;5.75;86.07
59588;BME280;45412;54.472;18.464;2023-12-20T09:45:08;98430.42;;;5.53;87.37
59588;BME280;45412;54.472;18.464;2023-12-20T09:47:58;98431.81;;;5.34;88.70
59588;BME280;45412;54.472;18.464;2023-12-20T09:50:46;98429.27;;;5.37;91.22
59588;BME280;45412;54.472;18.464;2023-12-20T09:53:41;98424.16;;;5.46;89.84
59588;BME280;45412;54.472;18.464;2023-12-20T09:56:30;98411.14;;;5.57;89.25
59588;BME280;45412;54.472;18.464;2023-12-20T09:59:18;98408.59;;;5.62;89.19
59588;BME280;45412;54.472;18.464;2023-12-20T10:02:12;98406.13;;;5.60;88.80
59588;BME280;45412;54.472;18.464;2023-12-20T10:05:02;98400.85;;;5.51;89.34
59588;BME280;45412;54.472;18.464;2023-12-20T10:07:51;98396.56;;;5.33;89.75
59588;BME280;45412;54.472;18.464;2023-12-20T10:10:40;98401.06;;;5.21;90.83
59588;BME280;45412;54.472;18.464;2023-12-20T10:13:39;98389.71;;;4.98;91.36
59588;BME280;45412;54.472;18.464;2023-12-20T10:16:29;98387.73;;;4.84;92.28
59588;BME280;45412;54.472;18.464;2023-12-20T10:19:17;98380.21;;;4.72;93.20
59588;BME280;45412;54.472;18.464;2023-12-20T10:22:06;98373.80;;;4.51;93.97
59588;BME280;45412;54.472;18.464;2023-12-20T10:24:56;98369.73;;;4.36;94.99
59588;BME280;45412;54.472;18.464;2023-12-20T10:27:44;98361.50;;;4.26;95.78
59588;BME280;45412;54.472;18.464;2023-12-20T10:30:31;98361.05;;;4.19;96.63
59588;BME280;45412;54.472;18.464;2023-12-20T10:33:30;98357.94;;;4.14;97.33
59588;BME280;45412;54.472;18.464;2023-12-20T10:36:20;98350.70;;;4.07;98.18
59588;BME280;45412;54.472;18.464;2023-12-20T10:39:09;98349.33;;;4.07;98.70
59588;BME280;45412;54.472;18.464;2023-12-20T10:41:59;98349.05;;;4.00;99.31
59588;BME280;45412;54.472;18.464;2023-12-20T10:44:47;98344.23;;;3.96;99.80
59588;BME280;45412;54.472;18.464;2023-12-20T10:47:35;98335.11;;;3.91;100.00
59588;BME280;45412;54.472;18.464;2023-12-20T10:50:27;98320.56;;;3.91;100.00
59588;BME280;45412;54.472;18.464;2023-12-20T10:53:16;98314.70;;;3.92;100.00
59588;BME280;45412;54.472;18.464;2023-12-20T10:56:06;98315.25;;;3.96;100.00
59588;BME280;45412;54.472;18.464;2023-12-20T10:58:57;98305.70;;;3.95;100.00
59588;BME280;45412;54.472;18.464;2023-12-20T11:01:50;98300.01;;;3.96;100.00
59588;BME280;45412;54.472;18.464;2023-12-20T11:07:48;98284.30;;;3.99;100.00
59588;BME280;45412;54.472;18.464;2023-12-20T11:11:05;98275.38;;;3.99;100.00
59588;BME280;45412;54.472;18.464;2023-12-20T11:14:00;98277.17;;;3.98;100.00
59588;BME280;45412;54.472;18.464;2023-12-20T11:16:49;98275.94;;;4.01;100.00
59588;BME280;45412;54.472;18.464;2023-12-20T11:22:55;98270.22;;;4.02;100.00
59588;BME280;45412;54.472;18.464;2023-12-20T11:25:49;98264.10;;;4.06;100.00
59588;BME280;45412;54.472;18.464;2023-12-20T11:28:39;98255.21;;;4.10;100.00
59588;BME280;45412;54.472;18.464;2023-12-20T11:31:27;98249.55;;;4.11;100.00
59588;BME280;45412;54.472;18.464;2023-12-20T11:34:17;98245.39;;;4.14;100.00
59588;BME280;45412;54.472;18.464;2023-12-20T11:37:05;98240.52;;;4.20;100.00
59588;BME280;45412;54.472;18.464;2023-12-20T11:39:56;98227.85;;;4.23;100.00
59588;BME280;45412;54.472;18.464;2023-12-20T11:42:49;98216.63;;;4.27;100.00
59588;BME280;45412;54.472;18.464;2023-12-20T11:45:48;98210.16;;;4.29;100.00
59588;BME280;45412;54.472;18.464;2023-12-20T11:48:39;98208.70;;;4.30;100.00
59588;BME280;45412;54.472;18.464;2023-12-20T11:51:32;98198.65;;;4.26;100.00
59588;BME280;45412;54.472;18.464;2023-12-20T11:54:19;98201.78;;;4.28;100.00
59588;BME280;45412;54.472;18.464;2023-12-20T11:57:07;98189.70;;;4.23;100.00
59588;BME280;45412;54.472;18.464;2023-12-20T11:59:55;98187.32;;;4.18;100.00
59588;BME280;45412;54.472;18.464;2023-12-20T12:02:43;98177.60;;;4.17;100.00
59588;BME280;45412;54.472;18.464;2023-12-20T12:05:35;98175.69;;;4.21;100.00
59588;BME280;45412;54.472;18.464;2023-12-20T12:08:24;98170.88;;;4.19;100.00
59588;BME280;45412;54.472;18.464;2023-12-20T12:11:11;98164.80;;;4.17;100.00
59588;BME280;45412;54.472;18.464;2023-12-20T12:14:00;98153.43;;;4.12;100.00
59588;BME280;45412;54.472;18.464;2023-12-20T12:16:48;98151.85;;;4.16;100.00
59588;BME280;45412;54.472;18.464;2023-12-20T12:19:39;98148.94;;;4.15;100.00
59588;BME280;45412;54.472;18.464;2023-12-20T12:22:27;98154.29;;;4.14;100.00
59588;BME280;45412;54.472;18.464;2023-12-20T12:25:15;98151.50;;;4.12;100.00
59588;BME280;45412;54.472;18.464;2023-12-20T12:28:03;98149.70;;;4.08;100.00
59588;BME280;45412;54.472;18.464;2023-12-20T12:30:58;98151.08;;;4.02;100.00
59588;BME280;45412;54.472;18.464;2023-12-20T12:33:47;98147.58;;;3.99;100.00
59588;BME280;45412;54.472;18.464;2023-12-20T12:36:35;98143.92;;;3.97;100.00
59588;BME280;45412;54.472;18.464;2023-12-20T12:39:24;98142.11;;;3.98;100.00
59588;BME280;45412;54.472;18.464;2023-12-20T12:42:14;98139.86;;;3.99;100.00
59588;BME280;45412;54.472;18.464;2023-12-20T12:45:02;98130.24;;;3.99;100.00
59588;BME280;45412;54.472;18.464;2023-12-20T12:47:50;98132.47;;;3.97;100.00
59588;BME280;45412;54.472;18.464;2023-12-20T12:50:38;98128.48;;;3.95;100.00
59588;BME280;45412;54.472;18.464;2023-12-20T12:53:26;98125.07;;;3.91;100.00
59588;BME280;45412;54.472;18.464;2023-12-20T12:56:16;98122.51;;;3.88;100.00
59588;BME280;45412;54.472;18.464;2023-12-20T12:59:04;98109.80;;;3.87;100.00
59588;BME280;45412;54.472;18.464;2023-12-20T13:01:53;98114.89;;;3.89;100.00
59588;BME280;45412;54.472;18.464;2023-12-20T13:04:41;98110.65;;;3.89;100.00
59588;BME280;45412;54.472;18.464;2023-12-20T13:07:30;98105.12;;;3.84;100.00
59588;BME280;45412;54.472;18.464;2023-12-20T13:10:18;98107.60;;;3.82;100.00
59588;BME280;45412;54.472;18.464;2023-12-20T13:13:07;98106.44;;;3.83;100.00
59588;BME280;45412;54.472;18.464;2023-12-20T13:15:54;98103.77;;;3.84;100.00
59588;BME280;45412;54.472;18.464;2023-12-20T13:18:43;98102.79;;;3.83;100.00
59588;BME280;45412;54.472;18.464;2023-12-20T13:21:31;98100.97;;;3.81;100.00
59588;BME280;45412;54.472;18.464;2023-12-20T13:24:19;98093.50;;;3.80;100.00
59588;BME280;45412;54.472;18.464;2023-12-20T13:27:06;98093.04;;;3.80;100.00
59588;BME280;45412;54.472;18.464;2023-12-20T13:29:54;98088.65;;;3.80;100.00
59588;BME280;45412;54.472;18.464;2023-12-20T13:32:42;98082.70;;;3.82;100.00
59588;BME280;45412;54.472;18.464;2023-12-20T13:35:30;98083.79;;;3.81;100.00
59588;BME280;45412;54.472;18.464;2023-12-20T13:38:19;98080.70;;;3.80;100.00
59588;BME280;45412;54.472;18.464;2023-12-20T13:41:07;98073.86;;;3.80;100.00
59588;BME280;45412;54.472;18.464;2023-12-20T13:43:54;98063.50;;;3.83;100.00
59588;BME280;45412;54.472;18.464;2023-12-20T13:46:43;98060.72;;;3.84;100.00
59588;BME280;45412;54.472;18.464;2023-12-20T13:49:31;98053.38;;;3.82;100.00
59588;BME280;45412;54.472;18.464;2023-12-20T13:52:19;98057.41;;;3.84;100.00
59588;BME280;45412;54.472;18.464;2023-12-20T13:55:07;98062.08;;;3.81;100.00
59588;BME280;45412;54.472;18.464;2023-12-20T13:57:56;98051.88;;;3.74;100.00
59588;BME280;45412;54.472;18.464;2023-12-20T14:00:46;98051.07;;;3.73;100.00
59588;BME280;45412;54.472;18.464;2023-12-20T14:03:34;98048.63;;;3.73;100.00
59588;BME280;45412;54.472;18.464;2023-12-20T14:06:21;98042.05;;;3.72;100.00
59588;BME280;45412;54.472;18.464;2023-12-20T14:09:09;98038.65;;;3.66;100.00
59588;BME280;45412;54.472;18.464;2023-12-20T14:12:01;98041.04;;;3.63;100.00
59588;BME280;45412;54.472;18.464;2023-12-20T14:14:49;98039.23;;;3.62;100.00
59588;BME280;45412;54.472;18.464;2023-12-20T14:17:38;98038.68;;;3.60;100.00
59588;BME280;45412;54.472;18.464;2023-12-20T14:20:26;98040.32;;;3.57;100.00
59588;BME280;45412;54.472;18.464;2023-12-20T14:23:14;98030.65;;;3.53;100.00
59588;BME280;45412;54.472;18.464;2023-12-20T14:26:02;98018.16;;;3.47;100.00
59588;BME280;45412;54.472;18.464;2023-12-20T14:28:50;98018.14;;;3.38;100.00
59588;BME280;45412;54.472;18.464;2023-12-20T14:31:38;98014.44;;;3.34;100.00
59588;BME280;45412;54.472;18.464;2023-12-20T14:34:27;98016.54;;;3.32;100.00
59588;BME280;45412;54.472;18.464;2023-12-20T14:37:15;98011.58;;;3.31;100.00
59588;BME280;45412;54.472;18.464;2023-12-20T14:40:09;98010.52;;;3.31;100.00
59588;BME280;45412;54.472;18.464;2023-12-20T14:43:04;98006.23;;;3.33;100.00
59588;BME280;45412;54.472;18.464;2023-12-20T14:45:52;98009.40;;;3.33;100.00
59588;BME280;45412;54.472;18.464;2023-12-20T14:48:41;98008.63;;;3.37;100.00